Time;durP1;ratioP1;P1;durP2;ratioP2;P2;SDS_P1;SDS_P2;PMS_P1;PMS_P2;Temp;Humidity;BMP_temperature;BMP_pressure;BME280_temperature;BME280_humidity;BME280_pressure;Samples;Min_cycle;Max_cycle;Signal;HPM_P1;HPM_P2
2022/03/18 00:02:24;;;;;;;17.90;6.90;;;;;;;;;;5006865;28;20068;-73
2022/03/18 00:04:53;;;;;;;22.77;6.78;;;;;;;;;;5018091;28;20351;-71
2022/03/18 00:07:22;;;;;;;16.73;6.63;;;;;;;;;;5017311;28;20052;-70
2022/03/18 00:09:48;;;;;;;23.73;8.13;;;;;;;;;;5000408;28;20040;-72
2022/03/18 00:12:13;;;;;;;26.55;9.13;;;;;;;;;;5016863;28;20664;-71
2022/03/18 00:14:39;;;;;;;34.25;9.30;;;;;;;;;;5015861;28;20357;-71
2022/03/18 00:17:05;;;;;;;38.03;8.05;;;;;;;;;;5001982;28;21974;-72
2022/03/18 00:19:31;;;;;;;37.70;7.22;;;;;;;;;;4998838;28;20199;-72
2022/03/18 00:22:01;;;;;;;26.23;6.53;;;;;;;;;;5000602;28;20117;-70
2022/03/18 00:24:27;;;;;;;22.48;5.50;;;;;;;;;;5000105;28;20186;-70
2022/03/18 00:26:53;;;;;;;23.50;7.65;;;;;;;;;;4998976;28;20099;-71
2022/03/18 00:29:20;;;;;;;26.27;6.55;;;;;;;;;;4985465;28;20128;-71
2022/03/18 00:31:46;;;;;;;21.25;6.75;;;;;;;;;;5000261;28;20033;-72
2022/03/18 00:34:11;;;;;;;32.28;7.88;;;;;;;;;;5017092;28;20530;-72
2022/03/18 00:36:41;;;;;;;23.65;8.30;;;;;;;;;;4999566;28;20112;-72
2022/03/18 00:39:09;;;;;;;26.52;8.82;;;;;;;;;;5017381;28;20128;-71
2022/03/18 00:41:34;;;;;;;23.52;9.40;;;;;;;;;;4998524;28;20090;-71
2022/03/18 00:43:59;;;;;;;18.95;7.95;;;;;;;;;;4989271;28;20678;-71
2022/03/18 00:46:25;;;;;;;21.77;9.88;;;;;;;;;;5016776;28;20035;-72
2022/03/18 00:54:21;;;;;;;15.07;5.40;;;;;;;;;;4998397;28;20142;-70
2022/03/18 00:56:46;;;;;;;27.73;10.35;;;;;;;;;;4997776;28;20053;-70
2022/03/18 00:59:12;;;;;;;18.35;6.95;;;;;;;;;;5016491;28;20036;-71
2022/03/18 01:01:38;;;;;;;20.13;6.88;;;;;;;;;;4998334;28;22029;-72
2022/03/18 01:04:05;;;;;;;18.42;6.13;;;;;;;;;;5016534;28;20096;-71
2022/03/18 01:06:31;;;;;;;17.55;6.13;;;;;;;;;;5004902;28;20064;-71
2022/03/18 01:08:57;;;;;;;21.17;6.20;;;;;;;;;;5015628;28;20021;-71
2022/03/18 01:11:25;;;;;;;15.52;5.90;;;;;;;;;;5016275;28;20498;-71
2022/03/18 01:13:50;;;;;;;15.57;6.30;;;;;;;;;;5000719;28;20028;-71
2022/03/18 01:16:16;;;;;;;20.30;7.18;;;;;;;;;;5006540;28;20075;-71
2022/03/18 01:18:41;;;;;;;15.52;6.47;;;;;;;;;;5019056;28;20029;-72
2022/03/18 01:21:06;;;;;;;17.73;6.97;;;;;;;;;;5001907;28;20036;-70
2022/03/18 01:23:31;;;;;;;14.05;6.70;;;;;;;;;;5001437;28;20071;-71
2022/03/18 01:25:59;;;;;;;13.25;5.38;;;;;;;;;;5019715;28;20029;-71
2022/03/18 01:28:27;;;;;;;18.95;7.10;;;;;;;;;;5018640;28;20480;-70
2022/03/18 01:30:52;;;;;;;17.40;6.72;;;;;;;;;;5019229;28;20090;-71
2022/03/18 01:33:18;;;;;;;11.57;5.28;;;;;;;;;;4987902;28;20029;-72
2022/03/18 01:35:45;;;;;;;15.38;5.85;;;;;;;;;;5019811;28;20029;-71
2022/03/18 01:38:11;;;;;;;15.07;6.50;;;;;;;;;;5019732;28;20411;-70
2022/03/18 01:40:38;;;;;;;8.85;3.85;;;;;;;;;;5007794;28;20544;-72
2022/03/18 01:43:10;;;;;;;14.60;5.15;;;;;;;;;;5019145;28;20094;-71
2022/03/18 01:45:36;;;;;;;8.10;4.05;;;;;;;;;;5001056;28;20066;-70
2022/03/18 01:48:02;;;;;;;15.18;4.70;;;;;;;;;;5018983;28;20029;-70
2022/03/18 01:50:27;;;;;;;14.40;4.30;;;;;;;;;;5003754;28;20025;-70
2022/03/18 01:52:53;;;;;;;7.53;2.80;;;;;;;;;;5019035;28;20025;-70
2022/03/18 01:55:20;;;;;;;6.38;1.88;;;;;;;;;;5019029;28;21886;-71
2022/03/18 01:57:46;;;;;;;10.18;2.45;;;;;;;;;;4999911;28;20041;-71
2022/03/18 02:00:12;;;;;;;6.30;1.75;;;;;;;;;;5019545;28;20039;-70
2022/03/18 02:02:38;;;;;;;9.32;2.05;;;;;;;;;;5000795;28;20452;-71
2022/03/18 02:05:05;;;;;;;11.32;3.03;;;;;;;;;;5007112;28;20329;-70
2022/03/18 02:07:30;;;;;;;12.85;2.72;;;;;;;;;;5018981;28;20043;-72
2022/03/18 02:09:58;;;;;;;14.00;3.10;;;;;;;;;;5000566;28;20025;-71
2022/03/18 02:12:24;;;;;;;15.43;3.78;;;;;;;;;;5019208;28;20603;-72
2022/03/18 02:14:49;;;;;;;14.20;3.35;;;;;;;;;;5001195;28;20094;-71
2022/03/18 02:17:18;;;;;;;14.77;4.60;;;;;;;;;;5018454;28;20034;-70
2022/03/18 02:19:45;;;;;;;17.13;3.97;;;;;;;;;;5017251;28;20152;-71
2022/03/18 02:22:10;;;;;;;21.92;4.93;;;;;;;;;;5017437;28;20036;-71
2022/03/18 02:24:39;;;;;;;17.05;4.53;;;;;;;;;;4984825;28;20053;-71
2022/03/18 02:27:07;;;;;;;25.35;5.57;;;;;;;;;;5000152;28;20486;-70
2022/03/18 02:29:33;;;;;;;22.75;3.80;;;;;;;;;;5018216;28;20029;-72
2022/03/18 02:32:01;;;;;;;16.05;4.57;;;;;;;;;;5001407;28;20722;-71
2022/03/18 02:34:27;;;;;;;20.83;4.10;;;;;;;;;;5018564;28;20047;-71
2022/03/18 02:36:55;;;;;;;30.58;4.63;;;;;;;;;;5017808;28;20467;-70
2022/03/18 02:39:20;;;;;;;25.05;5.78;;;;;;;;;;5019152;28;20044;-71
2022/03/18 02:41:46;;;;;;;23.17;4.68;;;;;;;;;;5018184;28;20037;-71
2022/03/18 02:44:11;;;;;;;21.98;4.28;;;;;;;;;;5006756;28;20468;-70
2022/03/18 02:46:36;;;;;;;22.65;4.70;;;;;;;;;;5017836;28;20060;-71
2022/03/18 02:49:05;;;;;;;28.88;5.57;;;;;;;;;;5019506;28;20069;-71
2022/03/18 02:51:30;;;;;;;35.03;6.20;;;;;;;;;;5002331;28;20124;-72
2022/03/18 02:53:57;;;;;;;38.50;6.63;;;;;;;;;;5018000;28;20044;-70
2022/03/18 02:56:22;;;;;;;33.67;5.30;;;;;;;;;;5017397;28;20436;-70
2022/03/18 02:58:47;;;;;;;29.35;5.00;;;;;;;;;;5017870;28;20437;-71
2022/03/18 03:01:13;;;;;;;22.45;4.50;;;;;;;;;;5018520;28;20136;-72
2022/03/18 03:03:38;;;;;;;19.25;4.07;;;;;;;;;;5017219;28;20309;-70
2022/03/18 03:08:52;;;;;;;26.63;4.50;;;;;;;;;;4967323;28;20064;-70
2022/03/18 03:11:18;;;;;;;23.13;4.80;;;;;;;;;;5018020;28;20106;-70
2022/03/18 03:13:43;;;;;;;26.73;4.63;;;;;;;;;;5017224;28;20045;-70
2022/03/18 03:16:09;;;;;;;19.40;4.13;;;;;;;;;;5018749;28;20484;-71
2022/03/18 03:18:36;;;;;;;14.60;3.90;;;;;;;;;;5016876;28;20025;-71
2022/03/18 03:21:02;;;;;;;17.98;4.05;;;;;;;;;;5016931;28;20080;-71
2022/03/18 03:23:28;;;;;;;17.95;4.07;;;;;;;;;;4999460;28;20465;-71
2022/03/18 03:25:53;;;;;;;17.27;4.07;;;;;;;;;;4998813;28;20041;-70
2022/03/18 03:28:19;;;;;;;28.55;5.40;;;;;;;;;;5017591;28;20112;-72
2022/03/18 03:30:45;;;;;;;24.80;5.70;;;;;;;;;;5016725;28;20062;-71
2022/03/18 03:33:11;;;;;;;52.22;7.78;;;;;;;;;;5017730;28;20033;-72
2022/03/18 03:35:36;;;;;;;48.45;8.00;;;;;;;;;;5016235;28;20507;-72
2022/03/18 03:38:02;;;;;;;44.47;6.75;;;;;;;;;;5017591;28;20637;-71
2022/03/18 03:40:27;;;;;;;35.05;7.05;;;;;;;;;;5016461;28;20282;-70
2022/03/18 03:42:58;;;;;;;41.25;8.73;;;;;;;;;;5017279;28;20024;-71
2022/03/18 03:45:23;;;;;;;35.78;7.82;;;;;;;;;;5017524;28;20097;-70
2022/03/18 03:47:49;;;;;;;46.92;8.25;;;;;;;;;;5016348;28;20353;-71
2022/03/18 03:50:14;;;;;;;46.20;7.65;;;;;;;;;;5017335;28;20389;-72
2022/03/18 03:52:41;;;;;;;37.35;7.13;;;;;;;;;;5016411;28;20029;-73
2022/03/18 03:55:07;;;;;;;36.38;6.40;;;;;;;;;;5012546;28;20488;-71
2022/03/18 03:57:32;;;;;;;30.90;7.82;;;;;;;;;;4995996;28;20063;-71
2022/03/18 03:59:58;;;;;;;38.83;7.05;;;;;;;;;;4979758;28;20033;-72
2022/03/18 04:02:23;;;;;;;30.05;6.15;;;;;;;;;;4997210;28;20167;-72
2022/03/18 04:04:49;;;;;;;27.38;5.55;;;;;;;;;;4996403;28;20045;-71
2022/03/18 04:07:14;;;;;;;29.35;5.43;;;;;;;;;;4979323;28;20489;-70
2022/03/18 04:09:40;;;;;;;32.10;5.72;;;;;;;;;;4981695;28;20030;-71
2022/03/18 04:12:06;;;;;;;22.23;5.32;;;;;;;;;;4997654;28;20040;-71
2022/03/18 04:14:32;;;;;;;21.20;5.38;;;;;;;;;;4987310;28;20017;-71
2022/03/18 04:17:01;;;;;;;24.75;5.50;;;;;;;;;;4997881;28;20563;-71
2022/03/18 04:19:27;;;;;;;21.42;5.72;;;;;;;;;;4997706;28;20046;-71
2022/03/18 04:21:54;;;;;;;22.33;5.45;;;;;;;;;;4963065;28;20527;-71
2022/03/18 04:24:20;;;;;;;23.27;5.28;;;;;;;;;;4963448;28;20396;-71
2022/03/18 04:26:46;;;;;;;28.30;6.93;;;;;;;;;;4979072;28;20053;-70
2022/03/18 04:29:12;;;;;;;18.38;4.55;;;;;;;;;;4997920;28;20029;-71
2022/03/18 04:31:39;;;;;;;22.80;4.57;;;;;;;;;;4997046;28;20464;-71
2022/03/18 04:34:04;;;;;;;27.02;5.53;;;;;;;;;;4997175;28;20057;-71
2022/03/18 04:36:38;;;;;;;20.38;5.60;;;;;;;;;;4979482;28;20018;-71
2022/03/18 04:39:04;;;;;;;14.52;5.25;;;;;;;;;;4979045;28;21842;-72
2022/03/18 04:41:29;;;;;;;17.05;5.53;;;;;;;;;;4995460;28;20022;-71
2022/03/18 04:44:01;;;;;;;17.30;5.00;;;;;;;;;;4978300;28;20595;-70
2022/03/18 04:46:28;;;;;;;14.27;5.68;;;;;;;;;;4979786;28;20145;-71
2022/03/18 04:48:53;;;;;;;20.42;5.32;;;;;;;;;;4987741;28;20032;-70
2022/03/18 04:51:19;;;;;;;17.50;5.88;;;;;;;;;;5000016;28;20021;-71
2022/03/18 04:53:44;;;;;;;19.42;6.03;;;;;;;;;;5000232;28;20028;-72
2022/03/18 04:57:15;;;;;;;15.18;4.57;;;;;;;;;;5013832;28;20053;-72
2022/03/18 04:58:55;;;;;;;18.40;5.50;;;;;;;;;;5019400;28;20103;-71
2022/03/18 05:01:21;;;;;;;16.25;5.60;;;;;;;;;;5002450;28;20469;-70
2022/03/18 05:03:46;;;;;;;20.02;6.18;;;;;;;;;;5020727;28;20029;-70
2022/03/18 05:06:12;;;;;;;46.60;7.00;;;;;;;;;;5002275;28;20381;-71
2022/03/18 05:08:40;;;;;;;22.23;6.30;;;;;;;;;;5020233;28;20041;-71
2022/03/18 05:11:06;;;;;;;25.02;6.35;;;;;;;;;;5000984;28;20037;-70
2022/03/18 05:13:34;;;;;;;20.27;6.53;;;;;;;;;;5020029;28;20033;-71
2022/03/18 05:15:59;;;;;;;21.40;6.82;;;;;;;;;;5020165;28;20038;-71
2022/03/18 05:18:24;;;;;;;17.42;6.00;;;;;;;;;;5001616;28;20102;-72
2022/03/18 05:20:50;;;;;;;20.00;6.13;;;;;;;;;;5020468;28;20033;-71
2022/03/18 05:23:16;;;;;;;20.45;6.22;;;;;;;;;;5001395;28;20761;-71
2022/03/18 05:25:43;;;;;;;25.45;5.97;;;;;;;;;;5003154;28;20041;-70
2022/03/18 05:28:11;;;;;;;27.42;7.47;;;;;;;;;;4992226;28;20481;-70
2022/03/18 05:30:38;;;;;;;33.20;7.78;;;;;;;;;;5002791;28;20303;-71
2022/03/18 05:33:04;;;;;;;50.35;9.25;;;;;;;;;;5019240;28;20044;-72
2022/03/18 05:35:30;;;;;;;59.88;10.20;;;;;;;;;;5002485;28;20448;-71
2022/03/18 05:37:58;;;;;;;63.38;11.05;;;;;;;;;;5020148;28;20039;-71
2022/03/18 05:40:24;;;;;;;89.00;12.93;;;;;;;;;;5020661;28;20403;-71
2022/03/18 05:42:49;;;;;;;66.43;11.00;;;;;;;;;;5017527;28;20050;-70
2022/03/18 05:45:15;;;;;;;68.13;9.98;;;;;;;;;;5018471;28;20075;-71
2022/03/18 05:47:40;;;;;;;46.20;8.88;;;;;;;;;;5008654;28;20060;-71
2022/03/18 05:50:07;;;;;;;42.40;7.85;;;;;;;;;;5002253;28;20812;-71
2022/03/18 05:52:33;;;;;;;49.78;8.90;;;;;;;;;;5000587;28;20094;-71
2022/03/18 05:54:59;;;;;;;42.50;7.97;;;;;;;;;;5019084;28;20467;-71
2022/03/18 05:57:26;;;;;;;45.05;7.57;;;;;;;;;;5019465;28;20071;-71
2022/03/18 05:59:53;;;;;;;29.52;7.65;;;;;;;;;;5002286;28;20044;-72
2022/03/18 06:02:18;;;;;;;28.77;7.40;;;;;;;;;;5019568;28;20128;-70
2022/03/18 06:04:44;;;;;;;34.97;7.60;;;;;;;;;;5000826;28;20043;-71
2022/03/18 06:07:09;;;;;;;24.55;7.80;;;;;;;;;;5019138;28;20076;-71
2022/03/18 06:12:18;;;;;;;27.88;7.90;;;;;;;;;;5002882;28;20128;-72
2022/03/18 06:14:44;;;;;;;38.63;9.20;;;;;;;;;;5000712;28;20400;-71
2022/03/18 06:17:10;;;;;;;27.40;7.75;;;;;;;;;;5017867;28;20029;-72
2022/03/18 06:19:35;;;;;;;26.95;7.45;;;;;;;;;;5017162;28;20729;-72
2022/03/18 06:22:01;;;;;;;25.60;7.85;;;;;;;;;;5017592;28;20074;-71
2022/03/18 06:24:30;;;;;;;26.02;8.35;;;;;;;;;;5018068;28;20201;-72
2022/03/18 06:26:56;;;;;;;27.70;7.60;;;;;;;;;;5017558;28;20037;-71
2022/03/18 06:29:21;;;;;;;25.65;7.88;;;;;;;;;;5018326;28;20029;-72
2022/03/18 06:31:47;;;;;;;30.92;7.45;;;;;;;;;;5018403;28;20392;-70
2022/03/18 06:34:13;;;;;;;29.00;8.15;;;;;;;;;;5016185;28;20109;-72
2022/03/18 06:36:39;;;;;;;26.98;7.95;;;;;;;;;;5010701;28;20118;-71
2022/03/18 06:39:05;;;;;;;23.13;7.28;;;;;;;;;;5013423;28;20037;-70
2022/03/18 06:41:31;;;;;;;27.10;7.55;;;;;;;;;;5014550;28;20016;-70
2022/03/18 06:43:57;;;;;;;24.27;6.95;;;;;;;;;;5014813;28;20116;-72
2022/03/18 06:46:23;;;;;;;25.23;7.32;;;;;;;;;;5002223;28;20028;-71
2022/03/18 06:48:48;;;;;;;22.25;6.40;;;;;;;;;;5000546;28;20025;-71
2022/03/18 06:51:17;;;;;;;29.02;6.55;;;;;;;;;;4999854;28;20124;-72
2022/03/18 06:53:42;;;;;;;23.20;7.20;;;;;;;;;;5018020;28;20034;-71
2022/03/18 06:56:08;;;;;;;18.05;6.70;;;;;;;;;;5017878;28;20049;-72
2022/03/18 06:58:34;;;;;;;24.45;6.80;;;;;;;;;;5017191;28;20055;-71
2022/03/18 07:00:59;;;;;;;19.55;6.78;;;;;;;;;;5016569;28;20226;-73
2022/03/18 07:03:25;;;;;;;18.10;6.22;;;;;;;;;;4984516;28;20040;-72
2022/03/18 07:05:50;;;;;;;18.67;6.05;;;;;;;;;;5017172;28;20040;-70
2022/03/18 07:08:16;;;;;;;21.95;6.15;;;;;;;;;;4999547;28;20033;-72
2022/03/18 07:10:41;;;;;;;28.65;7.13;;;;;;;;;;5016594;28;20309;-72
2022/03/18 07:13:07;;;;;;;20.33;6.50;;;;;;;;;;4998154;28;20037;-72
2022/03/18 07:15:35;;;;;;;19.60;5.82;;;;;;;;;;4989783;28;20048;-72
2022/03/18 07:18:02;;;;;;;13.55;5.97;;;;;;;;;;4997116;28;20551;-71
2022/03/18 07:20:40;;;;;;;16.58;5.85;;;;;;;;;;5016618;28;20056;-72
2022/03/18 07:23:14;;;;;;;20.65;5.63;;;;;;;;;;5001266;28;20087;-70
2022/03/18 07:25:40;;;;;;;;;;;;;;;;;;5017534;28;20052;-70
2022/03/18 07:28:08;;;;;;;17.63;5.45;;;;;;;;;;5016860;28;20325;-71
2022/03/18 07:30:33;;;;;;;22.95;5.32;;;;;;;;;;5016494;28;20057;-72
2022/03/18 07:32:59;;;;;;;15.52;4.30;;;;;;;;;;5016567;28;20175;-72
2022/03/18 07:35:25;;;;;;;14.93;4.10;;;;;;;;;;4985318;28;20219;-72
2022/03/18 07:37:51;;;;;;;16.63;4.20;;;;;;;;;;5000611;28;20064;-71
2022/03/18 07:40:18;;;;;;;18.08;4.13;;;;;;;;;;4998611;28;20134;-71
2022/03/18 07:42:51;;;;;;;18.85;3.55;;;;;;;;;;5016812;28;20025;-71
2022/03/18 07:45:20;;;;;;;25.23;3.90;;;;;;;;;;5016859;28;20037;-71
2022/03/18 07:47:49;;;;;;;18.42;4.22;;;;;;;;;;4998502;28;20086;-71
2022/03/18 07:50:19;;;;;;;18.60;3.58;;;;;;;;;;5001309;28;20029;-70
2022/03/18 07:52:45;;;;;;;14.93;3.25;;;;;;;;;;4997877;28;20392;-72
2022/03/18 07:55:10;;;;;;;14.27;3.80;;;;;;;;;;5016227;28;20037;-73
2022/03/18 07:57:36;;;;;;;15.85;3.40;;;;;;;;;;5015991;28;20033;-73
2022/03/18 08:00:02;;;;;;;18.02;3.72;;;;;;;;;;5019568;28;20528;-71
2022/03/18 08:02:27;;;;;;;17.27;4.13;;;;;;;;;;5003468;28;20048;-71
2022/03/18 08:04:53;;;;;;;20.60;4.10;;;;;;;;;;5016490;28;20077;-71
2022/03/18 08:07:19;;;;;;;10.68;3.72;;;;;;;;;;4998548;28;20512;-71
2022/03/18 08:09:46;;;;;;;9.80;3.10;;;;;;;;;;5016795;28;20102;-71
2022/03/18 08:12:12;;;;;;;12.32;3.53;;;;;;;;;;5017319;28;21828;-72
2022/03/18 08:14:39;;;;;;;15.65;3.47;;;;;;;;;;5014396;28;20514;-71
2022/03/18 08:17:06;;;;;;;13.35;3.83;;;;;;;;;;4998869;28;20029;-67
2022/03/18 08:19:33;;;;;;;13.60;3.70;;;;;;;;;;5015624;28;20059;-67
2022/03/18 08:22:00;;;;;;;12.80;3.85;;;;;;;;;;5015730;28;20036;-68
2022/03/18 08:24:26;;;;;;;15.52;3.85;;;;;;;;;;5000684;28;20637;-68
2022/03/18 08:26:51;;;;;;;13.77;4.10;;;;;;;;;;4985812;28;20194;-67
2022/03/18 08:29:17;;;;;;;15.05;3.95;;;;;;;;;;5000428;28;20121;-68
2022/03/18 08:31:44;;;;;;;13.57;3.78;;;;;;;;;;4997163;28;20487;-70
2022/03/18 08:34:10;;;;;;;12.90;3.85;;;;;;;;;;4995765;28;20044;-67
2022/03/18 08:36:35;;;;;;;13.63;3.78;;;;;;;;;;4996844;28;20025;-69
2022/03/18 08:39:01;;;;;;;12.00;3.70;;;;;;;;;;5015898;28;20033;-68
2022/03/18 08:41:26;;;;;;;21.75;4.65;;;;;;;;;;5016053;28;20030;-67
2022/03/18 08:43:54;;;;;;;23.63;5.75;;;;;;;;;;5015906;28;20056;-67
2022/03/18 08:46:19;;;;;;;27.27;5.43;;;;;;;;;;5014664;28;20537;-68
2022/03/18 08:48:48;;;;;;;21.65;4.90;;;;;;;;;;4999522;28;20098;-68
2022/03/18 08:51:15;;;;;;;26.95;4.82;;;;;;;;;;5014542;28;20037;-68
2022/03/18 08:53:41;;;;;;;18.90;4.22;;;;;;;;;;4999364;28;20531;-68
2022/03/18 08:56:07;;;;;;;22.13;5.07;;;;;;;;;;5014939;28;20047;-67
2022/03/18 08:58:32;;;;;;;19.00;4.32;;;;;;;;;;5014063;28;21678;-68
2022/03/18 09:00:58;;;;;;;21.73;4.15;;;;;;;;;;5015289;28;20037;-68
2022/03/18 09:03:23;;;;;;;18.25;3.90;;;;;;;;;;5014766;28;20029;-68
2022/03/18 09:05:49;;;;;;;19.38;4.57;;;;;;;;;;5000026;28;20037;-68
2022/03/18 09:08:14;;;;;;;17.85;3.78;;;;;;;;;;4985582;28;20032;-67
2022/03/18 09:10:40;;;;;;;20.15;4.32;;;;;;;;;;4997978;28;20048;-67
2022/03/18 09:13:06;;;;;;;16.48;3.95;;;;;;;;;;5015414;28;20021;-66
2022/03/18 09:15:31;;;;;;;18.45;4.43;;;;;;;;;;4997482;28;20111;-68
2022/03/18 09:17:57;;;;;;;16.45;4.22;;;;;;;;;;5015499;28;20049;-68
2022/03/18 09:20:22;;;;;;;13.68;4.00;;;;;;;;;;4998993;28;21066;-70
2022/03/18 09:22:50;;;;;;;14.80;4.00;;;;;;;;;;5015291;28;20055;-68
2022/03/18 09:25:15;;;;;;;12.73;3.80;;;;;;;;;;5000812;28;20228;-67
2022/03/18 09:27:42;;;;;;;17.88;3.95;;;;;;;;;;5015242;28;20471;-67
2022/03/18 09:30:11;;;;;;;15.35;4.03;;;;;;;;;;5002272;28;20032;-68
2022/03/18 09:32:36;;;;;;;14.90;3.85;;;;;;;;;;5015365;28;20119;-67
2022/03/18 09:35:03;;;;;;;16.48;3.78;;;;;;;;;;5018733;28;20049;-68
2022/03/18 09:37:29;;;;;;;18.65;4.10;;;;;;;;;;5017164;28;20213;-67
2022/03/18 09:39:57;;;;;;;11.43;3.67;;;;;;;;;;5004007;28;20088;-68
2022/03/18 09:42:23;;;;;;;13.18;3.50;;;;;;;;;;5018424;28;20374;-68
2022/03/18 09:44:48;;;;;;;21.42;4.07;;;;;;;;;;4984250;28;20068;-68
2022/03/18 09:47:14;;;;;;;17.63;4.03;;;;;;;;;;5018033;28;20040;-67
2022/03/18 09:49:42;;;;;;;17.83;4.50;;;;;;;;;;5018625;28;20101;-68
2022/03/18 09:52:08;;;;;;;14.60;4.45;;;;;;;;;;5018517;28;20064;-69
2022/03/18 09:54:34;;;;;;;12.38;4.40;;;;;;;;;;5018529;28;20253;-68
2022/03/18 09:57:00;;;;;;;13.40;4.85;;;;;;;;;;5018296;28;20423;-66
2022/03/18 09:59:27;;;;;;;10.68;4.45;;;;;;;;;;4987142;28;20396;-67
2022/03/18 10:02:11;;;;;;;12.95;5.13;;;;;;;;;;5007000;28;20079;-67
2022/03/18 10:04:50;;;;;;;11.25;4.70;;;;;;;;;;4999612;28;20120;-68
2022/03/18 10:07:16;;;;;;;11.00;3.97;;;;;;;;;;5018314;28;20028;-67
2022/03/18 10:09:41;;;;;;;13.68;4.22;;;;;;;;;;5017673;28;20029;-68
2022/03/18 10:12:08;;;;;;;11.25;4.80;;;;;;;;;;5018303;28;20056;-67
2022/03/18 10:14:33;;;;;;;13.23;5.15;;;;;;;;;;5004728;28;20075;-67
2022/03/18 10:17:04;;;;;;;10.38;4.90;;;;;;;;;;4999812;28;20051;-67
2022/03/18 10:19:29;;;;;;;14.32;4.63;;;;;;;;;;5018364;28;20025;-67
2022/03/18 10:21:56;;;;;;;16.85;4.90;;;;;;;;;;5018195;28;20056;-66
2022/03/18 10:24:23;;;;;;;11.15;5.10;;;;;;;;;;4999522;28;20029;-66
2022/03/18 10:26:49;;;;;;;13.68;5.40;;;;;;;;;;5017919;28;20021;-67
2022/03/18 10:29:15;;;;;;;12.93;5.03;;;;;;;;;;5018662;28;20314;-66
2022/03/18 10:31:45;;;;;;;11.57;4.18;;;;;;;;;;5017820;28;20034;-67
2022/03/18 10:37:04;;;;;;;11.35;4.45;;;;;;;;;;5017275;28;20029;-68
2022/03/18 10:39:31;;;;;;;9.60;3.90;;;;;;;;;;5017934;28;20546;-67
2022/03/18 10:42:00;;;;;;;14.93;4.53;;;;;;;;;;5016530;28;20096;-66
2022/03/18 10:44:27;;;;;;;12.18;4.07;;;;;;;;;;4999919;28;20108;-71
2022/03/18 10:46:53;;;;;;;14.48;4.65;;;;;;;;;;5018510;28;20033;-72
2022/03/18 10:49:21;;;;;;;12.38;4.53;;;;;;;;;;5018920;28;20328;-71
2022/03/18 10:51:46;;;;;;;10.85;4.45;;;;;;;;;;5018055;28;20279;-72
2022/03/18 10:54:12;;;;;;;9.93;4.35;;;;;;;;;;5018188;28;20422;-72
2022/03/18 10:56:52;;;;;;;8.75;3.90;;;;;;;;;;5007267;28;20052;-72
2022/03/18 10:59:19;;;;;;;11.47;3.47;;;;;;;;;;5018138;28;20785;-71
2022/03/18 11:01:47;;;;;;;11.77;4.10;;;;;;;;;;5017846;28;20310;-71
2022/03/18 11:04:16;;;;;;;11.45;4.30;;;;;;;;;;5001397;28;20852;-71
2022/03/18 11:06:42;;;;;;;11.25;4.07;;;;;;;;;;5018304;28;20021;-71
2022/03/18 11:09:11;;;;;;;9.27;4.38;;;;;;;;;;5000298;28;20031;-71
2022/03/18 11:11:40;;;;;;;13.50;4.68;;;;;;;;;;5017234;28;20168;-71
2022/03/18 11:14:09;;;;;;;10.98;4.10;;;;;;;;;;5016424;28;20037;-71
2022/03/18 11:16:38;;;;;;;11.50;4.72;;;;;;;;;;5017750;28;20068;-72
2022/03/18 11:19:08;;;;;;;11.98;4.57;;;;;;;;;;5018340;28;20360;-71
2022/03/18 11:21:40;;;;;;;9.18;4.10;;;;;;;;;;5005445;28;20032;-71
2022/03/18 11:24:11;;;;;;;12.00;4.20;;;;;;;;;;5017674;28;20119;-67
2022/03/18 11:26:47;;;;;;;10.55;4.05;;;;;;;;;;5000794;28;20160;-66
2022/03/18 11:29:24;;;;;;;12.13;3.88;;;;;;;;;;5005932;28;20036;-66
2022/03/18 11:32:08;;;;;;;10.48;3.80;;;;;;;;;;4999254;28;20029;-67
2022/03/18 11:34:43;;;;;;;10.65;3.15;;;;;;;;;;5017365;28;20393;-66
2022/03/18 11:37:11;;;;;;;14.88;4.07;;;;;;;;;;5016568;28;20025;-65
2022/03/18 11:39:38;;;;;;;11.70;3.45;;;;;;;;;;4999001;28;20033;-65
2022/03/18 11:42:10;;;;;;;12.50;3.95;;;;;;;;;;5004581;28;20052;-66
2022/03/18 11:44:43;;;;;;;11.02;3.47;;;;;;;;;;5016328;28;20087;-66
2022/03/18 11:47:26;;;;;;;11.75;4.05;;;;;;;;;;4999233;28;20506;-65
2022/03/18 11:49:52;;;;;;;10.75;3.95;;;;;;;;;;5016430;28;20040;-67
2022/03/18 11:52:17;;;;;;;11.13;3.70;;;;;;;;;;5017006;28;20029;-66
2022/03/18 11:54:53;;;;;;;6.65;2.88;;;;;;;;;;5016088;28;20307;-66
2022/03/18 11:57:33;;;;;;;10.13;3.78;;;;;;;;;;5016660;28;20102;-67
2022/03/18 12:00:05;;;;;;;13.40;4.38;;;;;;;;;;5004035;28;20032;-68
2022/03/18 12:02:37;;;;;;;9.15;3.90;;;;;;;;;;5016955;28;20408;-68
2022/03/18 12:05:04;;;;;;;13.38;4.80;;;;;;;;;;5016886;28;20126;-68
2022/03/18 12:07:30;;;;;;;10.10;4.45;;;;;;;;;;5016920;28;20029;-67
2022/03/18 12:10:01;;;;;;;11.32;4.13;;;;;;;;;;5006048;28;20040;-68
2022/03/18 12:12:28;;;;;;;11.65;3.78;;;;;;;;;;5016694;28;20048;-67
2022/03/18 12:14:57;;;;;;;11.75;3.67;;;;;;;;;;4998474;28;20025;-67
2022/03/18 12:17:23;;;;;;;14.23;4.15;;;;;;;;;;5016402;28;20034;-68
2022/03/18 12:19:52;;;;;;;10.70;4.45;;;;;;;;;;5016980;28;20456;-67
2022/03/18 12:22:18;;;;;;;10.95;4.00;;;;;;;;;;5016593;28;20303;-67
2022/03/18 12:24:44;;;;;;;8.07;4.30;;;;;;;;;;5015196;28;20029;-68
2022/03/18 12:27:09;;;;;;;11.38;3.83;;;;;;;;;;5016497;28;20033;-68
2022/03/18 12:29:35;;;;;;;9.27;3.60;;;;;;;;;;5004084;28;20025;-68
2022/03/18 12:32:09;;;;;;;10.13;3.50;;;;;;;;;;4984191;28;20381;-66
2022/03/18 12:34:46;;;;;;;11.80;3.78;;;;;;;;;;5001454;28;20120;-68
2022/03/18 12:37:31;;;;;;;10.48;3.70;;;;;;;;;;5016553;28;20057;-67
2022/03/18 12:40:14;;;;;;;15.82;3.80;;;;;;;;;;5015665;28;22435;-68
2022/03/18 12:42:46;;;;;;;8.93;3.40;;;;;;;;;;5016288;28;20020;-70
2022/03/18 12:45:12;;;;;;;13.57;3.70;;;;;;;;;;5013727;28;21768;-72
2022/03/18 12:47:37;;;;;;;7.82;2.70;;;;;;;;;;4999120;28;20029;-71
2022/03/18 12:50:03;;;;;;;13.25;3.88;;;;;;;;;;4998533;28;20690;-70
2022/03/18 12:52:31;;;;;;;12.43;4.40;;;;;;;;;;5015153;28;20094;-69
2022/03/18 12:55:10;;;;;;;10.35;3.63;;;;;;;;;;4997791;28;20233;-70
2022/03/18 12:57:41;;;;;;;10.40;3.97;;;;;;;;;;4996623;28;20805;-71
2022/03/18 13:00:11;;;;;;;9.03;4.10;;;;;;;;;;5004746;28;20448;-72
2022/03/18 13:02:37;;;;;;;10.73;4.07;;;;;;;;;;5004654;28;20572;-72
2022/03/18 13:05:05;;;;;;;12.25;3.90;;;;;;;;;;5015016;28;20033;-71
2022/03/18 13:07:30;;;;;;;10.77;3.60;;;;;;;;;;4997332;28;20424;-72
2022/03/18 13:09:58;;;;;;;12.88;3.90;;;;;;;;;;5018945;28;20116;-72
2022/03/18 13:12:24;;;;;;;12.07;3.70;;;;;;;;;;5000923;28;20124;-69
2022/03/18 13:14:53;;;;;;;12.20;4.30;;;;;;;;;;5018879;28;20032;-70
2022/03/18 13:17:32;;;;;;;12.15;4.20;;;;;;;;;;5000682;28;20025;-70
2022/03/18 13:19:57;;;;;;;13.40;4.88;;;;;;;;;;5017504;28;20137;-71
2022/03/18 13:22:24;;;;;;;9.75;4.25;;;;;;;;;;5002730;28;20029;-70
2022/03/18 13:24:51;;;;;;;12.85;4.55;;;;;;;;;;5018598;28;21920;-69
2022/03/18 13:27:18;;;;;;;18.65;5.30;;;;;;;;;;5018042;28;20812;-69
2022/03/18 13:35:12;;;;;;;13.68;4.57;;;;;;;;;;5016166;28;20040;-71
2022/03/18 13:37:38;;;;;;;15.38;5.60;;;;;;;;;;5018041;28;20033;-71
2022/03/18 13:40:07;;;;;;;13.75;5.18;;;;;;;;;;5018167;28;20120;-71
2022/03/18 13:42:33;;;;;;;10.80;4.95;;;;;;;;;;5000890;28;20033;-71
2022/03/18 13:44:58;;;;;;;16.05;4.53;;;;;;;;;;5017056;28;20025;-73
2022/03/18 13:47:26;;;;;;;11.05;5.00;;;;;;;;;;5018066;28;20314;-71
2022/03/18 13:49:56;;;;;;;14.52;5.35;;;;;;;;;;5000455;28;21911;-71
2022/03/18 13:52:31;;;;;;;14.43;4.82;;;;;;;;;;5019174;28;20021;-71
2022/03/18 13:54:59;;;;;;;14.80;5.28;;;;;;;;;;5019287;28;20338;-71
2022/03/18 13:57:25;;;;;;;11.48;5.20;;;;;;;;;;4986637;28;20046;-71
2022/03/18 13:59:54;;;;;;;14.52;5.10;;;;;;;;;;5018774;28;20040;-71
2022/03/18 14:02:25;;;;;;;12.90;5.25;;;;;;;;;;5020046;28;20247;-71
2022/03/18 14:04:53;;;;;;;10.68;4.50;;;;;;;;;;5019777;28;20192;-70
2022/03/18 14:07:19;;;;;;;13.30;4.63;;;;;;;;;;5018170;28;20025;-71
2022/03/18 14:09:55;;;;;;;13.15;5.00;;;;;;;;;;5019821;28;20472;-70
2022/03/18 14:12:21;;;;;;;15.15;5.95;;;;;;;;;;5018921;28;20033;-71
2022/03/18 14:14:47;;;;;;;12.50;4.85;;;;;;;;;;5002975;28;20108;-71
2022/03/18 14:17:13;;;;;;;10.52;4.00;;;;;;;;;;5019113;28;20451;-71
2022/03/18 14:19:42;;;;;;;12.38;4.40;;;;;;;;;;5017346;28;20039;-71
2022/03/18 14:22:07;;;;;;;15.77;4.72;;;;;;;;;;5001447;28;20081;-70
2022/03/18 14:24:32;;;;;;;13.65;4.43;;;;;;;;;;5019015;28;20108;-72
2022/03/18 14:27:00;;;;;;;12.15;4.60;;;;;;;;;;5000404;28;20119;-71
2022/03/18 14:29:31;;;;;;;11.23;3.90;;;;;;;;;;5001092;28;20103;-71
2022/03/18 14:31:57;;;;;;;12.77;4.45;;;;;;;;;;5017145;28;20017;-71
2022/03/18 14:34:22;;;;;;;12.40;4.03;;;;;;;;;;5000432;28;20485;-71
2022/03/18 14:36:47;;;;;;;14.82;4.40;;;;;;;;;;5018853;28;20506;-71
2022/03/18 14:39:13;;;;;;;10.73;4.22;;;;;;;;;;4999739;28;20848;-71
2022/03/18 14:41:38;;;;;;;11.57;3.47;;;;;;;;;;5000826;28;20152;-69
2022/03/18 14:44:04;;;;;;;9.00;2.88;;;;;;;;;;5018476;28;20514;-70
2022/03/18 14:46:30;;;;;;;9.90;3.03;;;;;;;;;;5000436;28;20037;-70
2022/03/18 14:48:56;;;;;;;13.35;3.60;;;;;;;;;;4991588;28;20033;-69
2022/03/18 14:51:22;;;;;;;10.50;3.08;;;;;;;;;;5018415;28;20125;-70